sensor_id;sensor_type;location;lat;lon;timestamp;P1;durP1;ratioP1;P2;durP2;ratioP2
51467;SDS011;37545;45.302;-122.946;2023-04-25T00:00:50;2.90;;;0.35;;
51467;SDS011;37545;45.302;-122.946;2023-04-25T00:03:20;0.15;;;0.00;;
51467;SDS011;37545;45.302;-122.946;2023-04-25T00:05:50;0.38;;;0.20;;
51467;SDS011;37545;45.302;-122.946;2023-04-25T00:08:19;0.70;;;0.10;;
51467;SDS011;37545;45.302;-122.946;2023-04-25T00:10:49;0.30;;;0.20;;
51467;SDS011;37545;45.302;-122.946;2023-04-25T00:13:18;0.20;;;0.20;;
51467;SDS011;37545;45.302;-122.946;2023-04-25T00:15:47;0.95;;;0.13;;
51467;SDS011;37545;45.302;-122.946;2023-04-25T00:18:16;0.13;;;0.10;;
51467;SDS011;37545;45.302;-122.946;2023-04-25T00:20:45;0.32;;;0.17;;
51467;SDS011;37545;45.302;-122.946;2023-04-25T00:23:13;0.00;;;0.00;;
51467;SDS011;37545;45.302;-122.946;2023-04-25T00:25:43;0.93;;;0.30;;
51467;SDS011;37545;45.302;-122.946;2023-04-25T00:28:14;0.68;;;0.10;;
51467;SDS011;37545;45.302;-122.946;2023-04-25T00:30:43;0.00;;;0.00;;
51467;SDS011;37545;45.302;-122.946;2023-04-25T00:33:12;0.38;;;0.20;;
51467;SDS011;37545;45.302;-122.946;2023-04-25T00:35:41;0.32;;;0.20;;
51467;SDS011;37545;45.302;-122.946;2023-04-25T00:38:10;0.63;;;0.20;;
51467;SDS011;37545;45.302;-122.946;2023-04-25T00:40:39;0.38;;;0.10;;
51467;SDS011;37545;45.302;-122.946;2023-04-25T00:43:09;1.42;;;0.20;;
51467;SDS011;37545;45.302;-122.946;2023-04-25T00:45:39;0.25;;;0.10;;
51467;SDS011;37545;45.302;-122.946;2023-04-25T00:48:08;0.28;;;0.20;;
51467;SDS011;37545;45.302;-122.946;2023-04-25T00:50:37;0.70;;;0.30;;
51467;SDS011;37545;45.302;-122.946;2023-04-25T00:53:06;0.60;;;0.20;;
51467;SDS011;37545;45.302;-122.946;2023-04-25T00:55:35;0.40;;;0.20;;
51467;SDS011;37545;45.302;-122.946;2023-04-25T00:58:04;0.75;;;0.30;;
51467;SDS011;37545;45.302;-122.946;2023-04-25T01:00:32;0.20;;;0.20;;
51467;SDS011;37545;45.302;-122.946;2023-04-25T01:03:03;0.10;;;0.10;;
51467;SDS011;37545;45.302;-122.946;2023-04-25T01:05:47;0.47;;;0.10;;
51467;SDS011;37545;45.302;-122.946;2023-04-25T01:08:23;0.30;;;0.10;;
51467;SDS011;37545;45.302;-122.946;2023-04-25T01:10:52;0.30;;;0.13;;
51467;SDS011;37545;45.302;-122.946;2023-04-25T01:13:21;0.60;;;0.10;;
51467;SDS011;37545;45.302;-122.946;2023-04-25T01:15:49;0.47;;;0.20;;
51467;SDS011;37545;45.302;-122.946;2023-04-25T01:18:19;0.70;;;0.28;;
51467;SDS011;37545;45.302;-122.946;2023-04-25T01:20:49;0.10;;;0.10;;
51467;SDS011;37545;45.302;-122.946;2023-04-25T01:23:21;0.08;;;0.00;;
51467;SDS011;37545;45.302;-122.946;2023-04-25T01:25:50;0.32;;;0.20;;
51467;SDS011;37545;45.302;-122.946;2023-04-25T01:28:19;1.77;;;0.43;;
51467;SDS011;37545;45.302;-122.946;2023-04-25T01:30:48;0.32;;;0.10;;
51467;SDS011;37545;45.302;-122.946;2023-04-25T01:33:17;0.77;;;0.17;;
51467;SDS011;37545;45.302;-122.946;2023-04-25T01:35:48;1.02;;;0.10;;
51467;SDS011;37545;45.302;-122.946;2023-04-25T01:38:17;0.32;;;0.20;;
51467;SDS011;37545;45.302;-122.946;2023-04-25T01:40:47;0.28;;;0.10;;
51467;SDS011;37545;45.302;-122.946;2023-04-25T01:43:18;0.40;;;0.40;;
51467;SDS011;37545;45.302;-122.946;2023-04-25T01:45:47;0.43;;;0.15;;
51467;SDS011;37545;45.302;-122.946;2023-04-25T01:48:17;0.10;;;0.10;;
51467;SDS011;37545;45.302;-122.946;2023-04-25T01:50:46;1.38;;;0.30;;
51467;SDS011;37545;45.302;-122.946;2023-04-25T01:53:14;0.80;;;0.20;;
51467;SDS011;37545;45.302;-122.946;2023-04-25T01:55:43;1.75;;;0.32;;
51467;SDS011;37545;45.302;-122.946;2023-04-25T01:58:13;1.33;;;0.20;;
51467;SDS011;37545;45.302;-122.946;2023-04-25T02:00:42;0.32;;;0.17;;
51467;SDS011;37545;45.302;-122.946;2023-04-25T02:03:10;0.32;;;0.05;;
51467;SDS011;37545;45.302;-122.946;2023-04-25T02:05:39;2.70;;;0.20;;
51467;SDS011;37545;45.302;-122.946;2023-04-25T02:08:11;0.10;;;0.00;;
51467;SDS011;37545;45.302;-122.946;2023-04-25T02:10:41;0.10;;;0.10;;
51467;SDS011;37545;45.302;-122.946;2023-04-25T02:13:10;0.32;;;0.22;;
51467;SDS011;37545;45.302;-122.946;2023-04-25T02:15:40;0.47;;;0.10;;
51467;SDS011;37545;45.302;-122.946;2023-04-25T02:18:09;0.20;;;0.20;;
51467;SDS011;37545;45.302;-122.946;2023-04-25T02:20:38;0.13;;;0.10;;
51467;SDS011;37545;45.302;-122.946;2023-04-25T02:23:06;0.00;;;0.00;;
51467;SDS011;37545;45.302;-122.946;2023-04-25T02:25:36;1.38;;;0.10;;
51467;SDS011;37545;45.302;-122.946;2023-04-25T02:28:04;1.50;;;0.28;;
51467;SDS011;37545;45.302;-122.946;2023-04-25T02:30:33;0.82;;;0.10;;
51467;SDS011;37545;45.302;-122.946;2023-04-25T02:33:03;0.13;;;0.10;;
51467;SDS011;37545;45.302;-122.946;2023-04-25T02:35:32;0.45;;;0.20;;
51467;SDS011;37545;45.302;-122.946;2023-04-25T02:38:01;0.00;;;0.00;;
51467;SDS011;37545;45.302;-122.946;2023-04-25T02:40:30;0.00;;;0.00;;
51467;SDS011;37545;45.302;-122.946;2023-04-25T02:42:58;0.22;;;0.20;;
51467;SDS011;37545;45.302;-122.946;2023-04-25T02:45:27;0.30;;;0.20;;
51467;SDS011;37545;45.302;-122.946;2023-04-25T02:47:55;1.45;;;0.15;;
51467;SDS011;37545;45.302;-122.946;2023-04-25T02:50:26;1.08;;;0.40;;
51467;SDS011;37545;45.302;-122.946;2023-04-25T02:52:55;0.52;;;0.22;;
51467;SDS011;37545;45.302;-122.946;2023-04-25T02:55:23;0.20;;;0.20;;
51467;SDS011;37545;45.302;-122.946;2023-04-25T02:57:52;0.57;;;0.30;;
51467;SDS011;37545;45.302;-122.946;2023-04-25T03:00:21;1.90;;;0.40;;
51467;SDS011;37545;45.302;-122.946;2023-04-25T03:02:50;0.85;;;0.57;;
51467;SDS011;37545;45.302;-122.946;2023-04-25T03:05:19;0.60;;;0.30;;
51467;SDS011;37545;45.302;-122.946;2023-04-25T03:07:49;0.80;;;0.40;;
51467;SDS011;37545;45.302;-122.946;2023-04-25T03:10:18;2.13;;;0.43;;
51467;SDS011;37545;45.302;-122.946;2023-04-25T03:12:46;0.70;;;0.50;;
51467;SDS011;37545;45.302;-122.946;2023-04-25T03:15:15;1.25;;;0.30;;
51467;SDS011;37545;45.302;-122.946;2023-04-25T03:17:44;3.30;;;0.60;;
51467;SDS011;37545;45.302;-122.946;2023-04-25T03:20:12;1.85;;;0.32;;
51467;SDS011;37545;45.302;-122.946;2023-04-25T03:22:41;0.30;;;0.20;;
51467;SDS011;37545;45.302;-122.946;2023-04-25T03:25:11;0.40;;;0.20;;
51467;SDS011;37545;45.302;-122.946;2023-04-25T03:27:40;0.95;;;0.25;;
51467;SDS011;37545;45.302;-122.946;2023-04-25T03:30:09;0.20;;;0.20;;
51467;SDS011;37545;45.302;-122.946;2023-04-25T03:32:37;0.10;;;0.10;;
51467;SDS011;37545;45.302;-122.946;2023-04-25T03:35:06;0.70;;;0.22;;
51467;SDS011;37545;45.302;-122.946;2023-04-25T03:37:35;0.20;;;0.00;;
51467;SDS011;37545;45.302;-122.946;2023-04-25T03:40:06;0.13;;;0.10;;
51467;SDS011;37545;45.302;-122.946;2023-04-25T03:42:37;3.50;;;0.32;;
51467;SDS011;37545;45.302;-122.946;2023-04-25T03:45:06;0.40;;;0.28;;
51467;SDS011;37545;45.302;-122.946;2023-04-25T03:47:35;0.40;;;0.20;;
51467;SDS011;37545;45.302;-122.946;2023-04-25T03:50:04;1.02;;;0.20;;
51467;SDS011;37545;45.302;-122.946;2023-04-25T03:52:34;0.50;;;0.30;;
51467;SDS011;37545;45.302;-122.946;2023-04-25T03:55:03;3.40;;;0.55;;
51467;SDS011;37545;45.302;-122.946;2023-04-25T03:57:32;0.82;;;0.50;;
51467;SDS011;37545;45.302;-122.946;2023-04-25T04:00:02;1.65;;;0.20;;
51467;SDS011;37545;45.302;-122.946;2023-04-25T04:02:32;0.43;;;0.20;;
51467;SDS011;37545;45.302;-122.946;2023-04-25T04:05:02;3.40;;;0.30;;
51467;SDS011;37545;45.302;-122.946;2023-04-25T04:07:37;0.47;;;0.20;;
51467;SDS011;37545;45.302;-122.946;2023-04-25T04:10:08;0.40;;;0.30;;
51467;SDS011;37545;45.302;-122.946;2023-04-25T04:12:37;1.55;;;0.30;;
51467;SDS011;37545;45.302;-122.946;2023-04-25T04:15:08;2.90;;;0.40;;
51467;SDS011;37545;45.302;-122.946;2023-04-25T04:17:38;3.00;;;0.47;;
51467;SDS011;37545;45.302;-122.946;2023-04-25T04:20:07;1.65;;;0.30;;
51467;SDS011;37545;45.302;-122.946;2023-04-25T04:22:36;1.15;;;0.25;;
51467;SDS011;37545;45.302;-122.946;2023-04-25T04:25:05;0.32;;;0.17;;
51467;SDS011;37545;45.302;-122.946;2023-04-25T04:27:35;2.53;;;0.40;;
51467;SDS011;37545;45.302;-122.946;2023-04-25T04:30:05;0.10;;;0.10;;
51467;SDS011;37545;45.302;-122.946;2023-04-25T04:32:36;1.60;;;0.20;;
51467;SDS011;37545;45.302;-122.946;2023-04-25T04:35:05;0.20;;;0.20;;
51467;SDS011;37545;45.302;-122.946;2023-04-25T04:37:34;0.25;;;0.10;;
51467;SDS011;37545;45.302;-122.946;2023-04-25T04:40:03;0.77;;;0.20;;
51467;SDS011;37545;45.302;-122.946;2023-04-25T04:42:33;1.20;;;0.30;;
51467;SDS011;37545;45.302;-122.946;2023-04-25T04:45:02;0.77;;;0.40;;
51467;SDS011;37545;45.302;-122.946;2023-04-25T04:47:32;0.10;;;0.10;;
51467;SDS011;37545;45.302;-122.946;2023-04-25T04:50:02;0.40;;;0.20;;
51467;SDS011;37545;45.302;-122.946;2023-04-25T04:52:32;0.10;;;0.10;;
51467;SDS011;37545;45.302;-122.946;2023-04-25T04:55:01;0.32;;;0.17;;
51467;SDS011;37545;45.302;-122.946;2023-04-25T04:57:31;0.08;;;0.08;;
51467;SDS011;37545;45.302;-122.946;2023-04-25T05:00:00;0.65;;;0.30;;
51467;SDS011;37545;45.302;-122.946;2023-04-25T05:02:34;0.35;;;0.17;;
51467;SDS011;37545;45.302;-122.946;2023-04-25T05:05:03;0.75;;;0.25;;
51467;SDS011;37545;45.302;-122.946;2023-04-25T05:07:32;2.72;;;0.57;;
51467;SDS011;37545;45.302;-122.946;2023-04-25T05:10:00;0.47;;;0.00;;
51467;SDS011;37545;45.302;-122.946;2023-04-25T05:12:29;1.85;;;0.30;;
51467;SDS011;37545;45.302;-122.946;2023-04-25T05:14:58;0.10;;;0.10;;
51467;SDS011;37545;45.302;-122.946;2023-04-25T05:17:26;1.35;;;0.20;;
51467;SDS011;37545;45.302;-122.946;2023-04-25T05:19:57;0.13;;;0.13;;
51467;SDS011;37545;45.302;-122.946;2023-04-25T05:22:25;0.15;;;0.15;;
51467;SDS011;37545;45.302;-122.946;2023-04-25T05:24:54;0.15;;;0.00;;
51467;SDS011;37545;45.302;-122.946;2023-04-25T05:27:23;1.55;;;0.03;;
51467;SDS011;37545;45.302;-122.946;2023-04-25T05:29:55;3.72;;;0.28;;
51467;SDS011;37545;45.302;-122.946;2023-04-25T05:32:23;0.25;;;0.25;;
51467;SDS011;37545;45.302;-122.946;2023-04-25T05:34:52;0.20;;;0.10;;
51467;SDS011;37545;45.302;-122.946;2023-04-25T05:37:22;0.38;;;0.10;;
51467;SDS011;37545;45.302;-122.946;2023-04-25T05:39:51;1.65;;;0.13;;
51467;SDS011;37545;45.302;-122.946;2023-04-25T05:42:20;0.52;;;0.20;;
51467;SDS011;37545;45.302;-122.946;2023-04-25T05:44:49;1.13;;;0.13;;
51467;SDS011;37545;45.302;-122.946;2023-04-25T05:47:17;0.52;;;0.30;;
51467;SDS011;37545;45.302;-122.946;2023-04-25T05:49:46;1.10;;;0.40;;
51467;SDS011;37545;45.302;-122.946;2023-04-25T05:52:15;2.13;;;0.10;;
51467;SDS011;37545;45.302;-122.946;2023-04-25T05:54:45;1.25;;;0.20;;
51467;SDS011;37545;45.302;-122.946;2023-04-25T05:57:19;4.20;;;0.30;;
51467;SDS011;37545;45.302;-122.946;2023-04-25T05:59:48;0.13;;;0.13;;
51467;SDS011;37545;45.302;-122.946;2023-04-25T06:02:17;1.17;;;0.20;;
51467;SDS011;37545;45.302;-122.946;2023-04-25T06:04:46;0.20;;;0.17;;
51467;SDS011;37545;45.302;-122.946;2023-04-25T06:07:15;0.35;;;0.10;;
51467;SDS011;37545;45.302;-122.946;2023-04-25T06:09:45;0.17;;;0.10;;
51467;SDS011;37545;45.302;-122.946;2023-04-25T06:12:14;0.52;;;0.15;;
51467;SDS011;37545;45.302;-122.946;2023-04-25T06:14:43;2.58;;;0.22;;
51467;SDS011;37545;45.302;-122.946;2023-04-25T06:17:12;0.43;;;0.17;;
51467;SDS011;37545;45.302;-122.946;2023-04-25T06:19:40;0.10;;;0.10;;
51467;SDS011;37545;45.302;-122.946;2023-04-25T06:22:09;0.22;;;0.22;;
51467;SDS011;37545;45.302;-122.946;2023-04-25T06:24:38;1.15;;;0.55;;
51467;SDS011;37545;45.302;-122.946;2023-04-25T06:27:09;0.93;;;0.28;;
51467;SDS011;37545;45.302;-122.946;2023-04-25T06:29:37;0.52;;;0.45;;
51467;SDS011;37545;45.302;-122.946;2023-04-25T06:32:06;0.20;;;0.10;;
51467;SDS011;37545;45.302;-122.946;2023-04-25T06:34:35;0.10;;;0.10;;
51467;SDS011;37545;45.302;-122.946;2023-04-25T06:37:03;1.45;;;0.10;;
51467;SDS011;37545;45.302;-122.946;2023-04-25T06:39:32;1.00;;;0.35;;
51467;SDS011;37545;45.302;-122.946;2023-04-25T06:42:01;0.45;;;0.38;;
51467;SDS011;37545;45.302;-122.946;2023-04-25T06:44:31;0.63;;;0.08;;
51467;SDS011;37545;45.302;-122.946;2023-04-25T06:47:00;0.22;;;0.15;;
51467;SDS011;37545;45.302;-122.946;2023-04-25T06:49:28;0.35;;;0.20;;
51467;SDS011;37545;45.302;-122.946;2023-04-25T06:51:57;0.10;;;0.10;;
51467;SDS011;37545;45.302;-122.946;2023-04-25T06:54:26;0.22;;;0.20;;
51467;SDS011;37545;45.302;-122.946;2023-04-25T06:56:55;0.35;;;0.15;;
51467;SDS011;37545;45.302;-122.946;2023-04-25T06:59:24;0.10;;;0.10;;
51467;SDS011;37545;45.302;-122.946;2023-04-25T07:01:54;0.52;;;0.10;;
51467;SDS011;37545;45.302;-122.946;2023-04-25T07:04:23;0.25;;;0.20;;
51467;SDS011;37545;45.302;-122.946;2023-04-25T07:06:52;2.70;;;0.35;;
51467;SDS011;37545;45.302;-122.946;2023-04-25T07:09:21;0.88;;;0.45;;
51467;SDS011;37545;45.302;-122.946;2023-04-25T07:11:49;0.35;;;0.08;;
51467;SDS011;37545;45.302;-122.946;2023-04-25T07:14:18;0.47;;;0.10;;
51467;SDS011;37545;45.302;-122.946;2023-04-25T07:16:47;0.57;;;0.17;;
51467;SDS011;37545;45.302;-122.946;2023-04-25T07:19:17;0.20;;;0.10;;
51467;SDS011;37545;45.302;-122.946;2023-04-25T07:21:46;0.00;;;0.00;;
51467;SDS011;37545;45.302;-122.946;2023-04-25T07:24:15;0.00;;;0.00;;
51467;SDS011;37545;45.302;-122.946;2023-04-25T07:26:43;1.48;;;0.10;;
51467;SDS011;37545;45.302;-122.946;2023-04-25T07:29:12;1.98;;;0.32;;
51467;SDS011;37545;45.302;-122.946;2023-04-25T07:31:41;3.00;;;0.32;;
51467;SDS011;37545;45.302;-122.946;2023-04-25T07:34:09;4.22;;;0.30;;
51467;SDS011;37545;45.302;-122.946;2023-04-25T07:36:39;0.30;;;0.20;;
51467;SDS011;37545;45.302;-122.946;2023-04-25T07:39:08;0.47;;;0.10;;
51467;SDS011;37545;45.302;-122.946;2023-04-25T07:41:37;0.05;;;0.05;;
51467;SDS011;37545;45.302;-122.946;2023-04-25T07:44:06;0.38;;;0.15;;
51467;SDS011;37545;45.302;-122.946;2023-04-25T07:46:34;1.35;;;0.10;;
51467;SDS011;37545;45.302;-122.946;2023-04-25T07:49:03;2.05;;;0.10;;
51467;SDS011;37545;45.302;-122.946;2023-04-25T07:51:31;0.10;;;0.10;;
51467;SDS011;37545;45.302;-122.946;2023-04-25T07:54:02;0.63;;;0.43;;
51467;SDS011;37545;45.302;-122.946;2023-04-25T07:56:31;0.82;;;0.10;;
51467;SDS011;37545;45.302;-122.946;2023-04-25T07:58:59;0.32;;;0.15;;
51467;SDS011;37545;45.302;-122.946;2023-04-25T08:01:28;0.85;;;0.10;;
51467;SDS011;37545;45.302;-122.946;2023-04-25T08:04:03;0.13;;;0.10;;
51467;SDS011;37545;45.302;-122.946;2023-04-25T08:06:32;0.32;;;0.20;;
51467;SDS011;37545;45.302;-122.946;2023-04-25T08:09:03;0.00;;;0.00;;
51467;SDS011;37545;45.302;-122.946;2023-04-25T08:11:32;0.30;;;0.08;;
51467;SDS011;37545;45.302;-122.946;2023-04-25T08:14:00;0.88;;;0.30;;
51467;SDS011;37545;45.302;-122.946;2023-04-25T08:16:29;0.00;;;0.00;;
51467;SDS011;37545;45.302;-122.946;2023-04-25T08:18:59;0.10;;;0.10;;
51467;SDS011;37545;45.302;-122.946;2023-04-25T08:21:28;0.10;;;0.08;;
51467;SDS011;37545;45.302;-122.946;2023-04-25T08:23:57;0.10;;;0.08;;
51467;SDS011;37545;45.302;-122.946;2023-04-25T08:26:28;0.00;;;0.00;;
51467;SDS011;37545;45.302;-122.946;2023-04-25T08:28:56;0.45;;;0.20;;
51467;SDS011;37545;45.302;-122.946;2023-04-25T08:31:25;0.03;;;0.03;;
51467;SDS011;37545;45.302;-122.946;2023-04-25T08:33:54;3.30;;;0.15;;
51467;SDS011;37545;45.302;-122.946;2023-04-25T08:36:22;0.10;;;0.10;;
51467;SDS011;37545;45.302;-122.946;2023-04-25T08:38:51;0.20;;;0.10;;
51467;SDS011;37545;45.302;-122.946;2023-04-25T08:41:20;0.68;;;0.20;;
51467;SDS011;37545;45.302;-122.946;2023-04-25T08:43:52;0.00;;;0.00;;
51467;SDS011;37545;45.302;-122.946;2023-04-25T08:46:25;0.40;;;0.05;;
51467;SDS011;37545;45.302;-122.946;2023-04-25T08:48:54;0.30;;;0.10;;
51467;SDS011;37545;45.302;-122.946;2023-04-25T08:51:27;0.25;;;0.25;;
51467;SDS011;37545;45.302;-122.946;2023-04-25T08:54:01;0.00;;;0.00;;
51467;SDS011;37545;45.302;-122.946;2023-04-25T08:56:37;0.00;;;0.00;;
51467;SDS011;37545;45.302;-122.946;2023-04-25T08:59:10;0.65;;;0.10;;
51467;SDS011;37545;45.302;-122.946;2023-04-25T09:01:39;0.30;;;0.10;;
51467;SDS011;37545;45.302;-122.946;2023-04-25T09:04:08;0.22;;;0.20;;
51467;SDS011;37545;45.302;-122.946;2023-04-25T09:06:36;1.88;;;0.10;;
51467;SDS011;37545;45.302;-122.946;2023-04-25T09:09:05;0.10;;;0.00;;
51467;SDS011;37545;45.302;-122.946;2023-04-25T09:11:36;1.17;;;0.10;;
51467;SDS011;37545;45.302;-122.946;2023-04-25T09:14:14;0.35;;;0.13;;
51467;SDS011;37545;45.302;-122.946;2023-04-25T09:16:59;2.33;;;0.47;;
51467;SDS011;37545;45.302;-122.946;2023-04-25T09:19:29;0.00;;;0.00;;
51467;SDS011;37545;45.302;-122.946;2023-04-25T09:22:01;0.60;;;0.20;;
51467;SDS011;37545;45.302;-122.946;2023-04-25T09:24:34;2.10;;;0.10;;
51467;SDS011;37545;45.302;-122.946;2023-04-25T09:27:04;0.05;;;0.03;;
51467;SDS011;37545;45.302;-122.946;2023-04-25T09:29:36;0.32;;;0.00;;
51467;SDS011;37545;45.302;-122.946;2023-04-25T09:32:15;0.10;;;0.10;;
51467;SDS011;37545;45.302;-122.946;2023-04-25T09:34:46;0.00;;;0.00;;
51467;SDS011;37545;45.302;-122.946;2023-04-25T09:37:19;1.55;;;0.10;;
51467;SDS011;37545;45.302;-122.946;2023-04-25T09:42:17;1.02;;;0.13;;
51467;SDS011;37545;45.302;-122.946;2023-04-25T09:44:51;0.00;;;0.00;;
51467;SDS011;37545;45.302;-122.946;2023-04-25T09:47:22;2.80;;;0.10;;
51467;SDS011;37545;45.302;-122.946;2023-04-25T09:49:52;0.10;;;0.00;;
51467;SDS011;37545;45.302;-122.946;2023-04-25T09:52:22;0.00;;;0.00;;
51467;SDS011;37545;45.302;-122.946;2023-04-25T09:54:51;0.20;;;0.00;;
51467;SDS011;37545;45.302;-122.946;2023-04-25T09:57:20;0.00;;;0.00;;
51467;SDS011;37545;45.302;-122.946;2023-04-25T09:59:52;0.03;;;0.00;;
51467;SDS011;37545;45.302;-122.946;2023-04-25T10:02:21;0.00;;;0.00;;
51467;SDS011;37545;45.302;-122.946;2023-04-25T10:04:52;2.28;;;0.10;;
51467;SDS011;37545;45.302;-122.946;2023-04-25T10:07:22;0.10;;;0.08;;
51467;SDS011;37545;45.302;-122.946;2023-04-25T10:09:54;1.27;;;0.10;;
51467;SDS011;37545;45.302;-122.946;2023-04-25T10:12:27;0.03;;;0.00;;
51467;SDS011;37545;45.302;-122.946;2023-04-25T10:14:58;0.35;;;0.00;;
51467;SDS011;37545;45.302;-122.946;2023-04-25T10:17:28;0.03;;;0.00;;
51467;SDS011;37545;45.302;-122.946;2023-04-25T10:19:56;0.00;;;0.00;;
51467;SDS011;37545;45.302;-122.946;2023-04-25T10:22:29;0.00;;;0.00;;
51467;SDS011;37545;45.302;-122.946;2023-04-25T10:25:01;0.00;;;0.00;;
51467;SDS011;37545;45.302;-122.946;2023-04-25T10:27:32;0.00;;;0.00;;
51467;SDS011;37545;45.302;-122.946;2023-04-25T10:30:03;0.10;;;0.10;;
51467;SDS011;37545;45.302;-122.946;2023-04-25T10:32:35;0.30;;;0.10;;
51467;SDS011;37545;45.302;-122.946;2023-04-25T10:35:10;0.00;;;0.00;;
51467;SDS011;37545;45.302;-122.946;2023-04-25T10:37:56;1.85;;;0.10;;
51467;SDS011;37545;45.302;-122.946;2023-04-25T10:40:26;0.20;;;0.20;;
51467;SDS011;37545;45.302;-122.946;2023-04-25T10:42:55;0.00;;;0.00;;
51467;SDS011;37545;45.302;-122.946;2023-04-25T10:45:54;0.00;;;0.00;;
51467;SDS011;37545;45.302;-122.946;2023-04-25T10:48:26;0.00;;;0.00;;
51467;SDS011;37545;45.302;-122.946;2023-04-25T10:53:39;0.03;;;0.03;;
51467;SDS011;37545;45.302;-122.946;2023-04-25T10:56:11;0.03;;;0.03;;
51467;SDS011;37545;45.302;-122.946;2023-04-25T10:58:45;1.05;;;0.03;;
51467;SDS011;37545;45.302;-122.946;2023-04-25T11:01:19;0.00;;;0.00;;
51467;SDS011;37545;45.302;-122.946;2023-04-25T11:03:48;0.00;;;0.00;;
51467;SDS011;37545;45.302;-122.946;2023-04-25T11:06:27;0.10;;;0.00;;
51467;SDS011;37545;45.302;-122.946;2023-04-25T11:09:03;0.00;;;0.00;;
51467;SDS011;37545;45.302;-122.946;2023-04-25T11:11:39;1.27;;;0.10;;
51467;SDS011;37545;45.302;-122.946;2023-04-25T11:14:08;1.08;;;0.20;;
51467;SDS011;37545;45.302;-122.946;2023-04-25T11:16:38;0.00;;;0.00;;
51467;SDS011;37545;45.302;-122.946;2023-04-25T11:19:07;0.00;;;0.00;;
51467;SDS011;37545;45.302;-122.946;2023-04-25T11:21:35;0.00;;;0.00;;
51467;SDS011;37545;45.302;-122.946;2023-04-25T11:24:05;0.10;;;0.00;;
51467;SDS011;37545;45.302;-122.946;2023-04-25T11:26:34;0.00;;;0.00;;
51467;SDS011;37545;45.302;-122.946;2023-04-25T11:29:04;0.15;;;0.00;;
51467;SDS011;37545;45.302;-122.946;2023-04-25T11:31:32;0.00;;;0.00;;
51467;SDS011;37545;45.302;-122.946;2023-04-25T11:34:02;0.40;;;0.20;;
51467;SDS011;37545;45.302;-122.946;2023-04-25T11:36:31;0.10;;;0.00;;
51467;SDS011;37545;45.302;-122.946;2023-04-25T11:39:00;0.10;;;0.00;;
51467;SDS011;37545;45.302;-122.946;2023-04-25T11:41:29;0.22;;;0.10;;
51467;SDS011;37545;45.302;-122.946;2023-04-25T11:43:59;0.15;;;0.10;;
51467;SDS011;37545;45.302;-122.946;2023-04-25T11:46:34;0.20;;;0.17;;
51467;SDS011;37545;45.302;-122.946;2023-04-25T11:49:05;0.10;;;0.10;;
51467;SDS011;37545;45.302;-122.946;2023-04-25T11:51:38;0.20;;;0.10;;
51467;SDS011;37545;45.302;-122.946;2023-04-25T11:54:07;0.10;;;0.10;;
51467;SDS011;37545;45.302;-122.946;2023-04-25T11:56:36;1.38;;;0.10;;
51467;SDS011;37545;45.302;-122.946;2023-04-25T11:59:05;0.17;;;0.08;;
51467;SDS011;37545;45.302;-122.946;2023-04-25T12:01:35;0.17;;;0.10;;
51467;SDS011;37545;45.302;-122.946;2023-04-25T12:04:12;0.00;;;0.00;;
51467;SDS011;37545;45.302;-122.946;2023-04-25T12:06:41;0.30;;;0.10;;
51467;SDS011;37545;45.302;-122.946;2023-04-25T12:09:12;1.85;;;0.10;;
51467;SDS011;37545;45.302;-122.946;2023-04-25T12:11:41;0.00;;;0.00;;
51467;SDS011;37545;45.302;-122.946;2023-04-25T12:14:10;0.20;;;0.17;;
51467;SDS011;37545;45.302;-122.946;2023-04-25T12:16:42;0.10;;;0.10;;
51467;SDS011;37545;45.302;-122.946;2023-04-25T12:19:15;0.10;;;0.10;;
51467;SDS011;37545;45.302;-122.946;2023-04-25T12:21:44;0.00;;;0.00;;
51467;SDS011;37545;45.302;-122.946;2023-04-25T12:24:13;0.08;;;0.00;;
51467;SDS011;37545;45.302;-122.946;2023-04-25T12:26:50;0.10;;;0.00;;
51467;SDS011;37545;45.302;-122.946;2023-04-25T12:29:20;1.98;;;0.20;;
51467;SDS011;37545;45.302;-122.946;2023-04-25T12:31:50;1.23;;;0.20;;
51467;SDS011;37545;45.302;-122.946;2023-04-25T12:34:22;0.08;;;0.08;;
51467;SDS011;37545;45.302;-122.946;2023-04-25T12:36:51;0.40;;;0.30;;
51467;SDS011;37545;45.302;-122.946;2023-04-25T12:39:20;1.65;;;0.35;;
51467;SDS011;37545;45.302;-122.946;2023-04-25T12:41:50;0.70;;;0.30;;
51467;SDS011;37545;45.302;-122.946;2023-04-25T12:44:19;1.33;;;0.40;;
51467;SDS011;37545;45.302;-122.946;2023-04-25T12:46:48;0.45;;;0.20;;
51467;SDS011;37545;45.302;-122.946;2023-04-25T12:49:17;0.40;;;0.30;;
51467;SDS011;37545;45.302;-122.946;2023-04-25T12:51:47;0.35;;;0.20;;
51467;SDS011;37545;45.302;-122.946;2023-04-25T12:54:17;0.35;;;0.25;;
51467;SDS011;37545;45.302;-122.946;2023-04-25T12:56:45;0.40;;;0.38;;
51467;SDS011;37545;45.302;-122.946;2023-04-25T12:59:15;0.30;;;0.20;;
51467;SDS011;37545;45.302;-122.946;2023-04-25T13:01:45;0.60;;;0.28;;
51467;SDS011;37545;45.302;-122.946;2023-04-25T13:04:14;1.40;;;0.80;;
51467;SDS011;37545;45.302;-122.946;2023-04-25T13:06:43;3.17;;;0.90;;
51467;SDS011;37545;45.302;-122.946;2023-04-25T13:09:13;3.50;;;1.42;;
51467;SDS011;37545;45.302;-122.946;2023-04-25T13:11:42;3.40;;;1.27;;
51467;SDS011;37545;45.302;-122.946;2023-04-25T13:14:11;3.17;;;1.55;;
51467;SDS011;37545;45.302;-122.946;2023-04-25T13:16:40;3.75;;;1.08;;
51467;SDS011;37545;45.302;-122.946;2023-04-25T13:19:09;2.83;;;0.95;;
51467;SDS011;37545;45.302;-122.946;2023-04-25T13:21:38;2.03;;;1.02;;
51467;SDS011;37545;45.302;-122.946;2023-04-25T13:24:07;3.63;;;1.20;;
51467;SDS011;37545;45.302;-122.946;2023-04-25T13:26:37;1.83;;;0.80;;
51467;SDS011;37545;45.302;-122.946;2023-04-25T13:29:06;2.63;;;1.23;;
51467;SDS011;37545;45.302;-122.946;2023-04-25T13:31:35;1.67;;;0.93;;
51467;SDS011;37545;45.302;-122.946;2023-04-25T13:34:03;7.72;;;1.20;;
51467;SDS011;37545;45.302;-122.946;2023-04-25T13:36:32;4.75;;;1.75;;
51467;SDS011;37545;45.302;-122.946;2023-04-25T13:39:01;4.03;;;1.73;;
51467;SDS011;37545;45.302;-122.946;2023-04-25T13:41:31;4.47;;;2.15;;
51467;SDS011;37545;45.302;-122.946;2023-04-25T13:44:02;4.18;;;1.35;;
51467;SDS011;37545;45.302;-122.946;2023-04-25T13:46:30;2.53;;;1.45;;
51467;SDS011;37545;45.302;-122.946;2023-04-25T13:48:59;2.70;;;1.83;;
51467;SDS011;37545;45.302;-122.946;2023-04-25T13:51:28;2.25;;;1.17;;
51467;SDS011;37545;45.302;-122.946;2023-04-25T13:53:57;1.58;;;0.88;;
51467;SDS011;37545;45.302;-122.946;2023-04-25T13:56:26;1.95;;;0.80;;
51467;SDS011;37545;45.302;-122.946;2023-04-25T13:58:54;0.35;;;0.35;;
51467;SDS011;37545;45.302;-122.946;2023-04-25T14:01:25;1.30;;;0.30;;
51467;SDS011;37545;45.302;-122.946;2023-04-25T14:03:56;2.45;;;1.08;;
51467;SDS011;37545;45.302;-122.946;2023-04-25T14:06:24;1.67;;;0.70;;
51467;SDS011;37545;45.302;-122.946;2023-04-25T14:08:53;0.65;;;0.40;;
51467;SDS011;37545;45.302;-122.946;2023-04-25T14:11:22;0.50;;;0.30;;
51467;SDS011;37545;45.302;-122.946;2023-04-25T14:13:50;1.95;;;0.45;;
51467;SDS011;37545;45.302;-122.946;2023-04-25T14:16:19;0.60;;;0.22;;
51467;SDS011;37545;45.302;-122.946;2023-04-25T14:18:50;0.00;;;0.00;;
51467;SDS011;37545;45.302;-122.946;2023-04-25T14:21:20;0.20;;;0.05;;
51467;SDS011;37545;45.302;-122.946;2023-04-25T14:23:48;0.10;;;0.10;;
51467;SDS011;37545;45.302;-122.946;2023-04-25T14:26:17;0.00;;;0.00;;
51467;SDS011;37545;45.302;-122.946;2023-04-25T14:28:46;0.35;;;0.08;;